F/V Anna Mamm Mari — FOHD — position and weather

sailwx.info

Track history (hours):
 
Tides and Currents Weather Stations Pressure Air Temp Water Temp Dewpoint Dewpoint Depression Visibility Wind Speed Wind Dir Waves Ship Positions

F/V Anna Mamm Mari

Last reported at 2014-Jul-30 16:33 UTC. Time now 2014-Jul-30 17:16 UTC.
Position N 46°15' W 001°43'.

Length 17 m.

Type: Fishing. MMSI: 228393000.

Date/timePositionNaut miles runAvg speedWind from/ knotsBaromVisibWave heightAir tempDewpointWater temp
2014-Jul-30 16:33N 46°15' W 001°43'0 0.0
2014-Jul-30 15:34N 46°15' W 001°43'0 0.4
2014-Jul-30 14:33N 46°14' W 001°43'1 1.3
2014-Jul-30 13:33N 46°15' W 001°41'2 1.9
2014-Jul-30 12:24N 46°13' W 001°43'3 1.6
2014-Jul-30 10:25N 46°11' W 001°46'2 1.9
2014-Jul-30 09:33N 46°12' W 001°47'1 0.1
2014-Jul-29 23:24N 46°12' W 001°45'1 0.1
2014-Jul-29 11:31N 46°12' W 001°46'1 1.0
2014-Jul-29 10:16N 46°11' W 001°46'9 8.3
2014-Jul-29 09:11N 46°20' W 001°46'5 8.4
2014-Jul-29 08:33N 46°25' W 001°46'5 4.7
2014-Jul-29 07:33N 46°30' W 001°47'0 0.0
2014-Jul-29 06:33N 46°30' W 001°47'0 0.0
2014-Jul-29 05:34N 46°30' W 001°47'0 0.0
2014-Jul-29 04:34N 46°30' W 001°47'0 0.0
2014-Jul-29 03:34N 46°30' W 001°47'0 0.0
2014-Jul-29 02:34N 46°30' W 001°47'0 0.0
2014-Jul-29 01:34N 46°30' W 001°47'0 0.0
2014-Jul-29 00:33N 46°30' W 001°47'0 0.0
2014-Jul-28 23:34N 46°30' W 001°47'0 0.0
2014-Jul-28 22:34N 46°30' W 001°47'0 0.0
2014-Jul-28 21:34N 46°30' W 001°47'0 0.0
2014-Jul-28 20:33N 46°30' W 001°47'0 0.0
2014-Jul-28 19:34N 46°30' W 001°47'0 0.0
2014-Jul-28 18:33N 46°30' W 001°47'0 0.0
2014-Jul-28 17:34N 46°30' W 001°47'0 0.0
2014-Jul-28 16:34N 46°30' W 001°47'0 0.0
2014-Jul-28 15:33N 46°30' W 001°47'0 0.0
2014-Jul-28 14:34N 46°30' W 001°47'0 0.0
2014-Jul-28 13:34N 46°30' W 001°47'0 0.0
2014-Jul-28 12:33N 46°30' W 001°47'0 0.0
2014-Jul-28 11:34N 46°30' W 001°47'0 0.0
2014-Jul-28 10:34N 46°30' W 001°47'  
2014-Jul-24 14:33N 46°28' W 001°47'9 8.9
2014-Jul-24 13:33N 46°20' W 001°42'9 8.9
2014-Jul-24 12:33N 46°11' W 001°38'9 7.1
2014-Jul-24 11:17N 46°03' W 001°34'0 0.5
2014-Jul-24 10:31N 46°03' W 001°34'0 0.4
2014-Jul-24 09:32N 46°02' W 001°33'1 0.6
2014-Jul-24 08:33N 46°02' W 001°34'0 0.4
2014-Jul-24 07:33N 46°02' W 001°34'0 0.4
2014-Jul-24 06:33N 46°02' W 001°34'1 0.8
2014-Jul-24 05:16N 46°01' W 001°33'1 1.2
2014-Jul-24 04:04N 46°02' W 001°35'0 0.8
2014-Jul-24 03:33N 46°02' W 001°36'1 0.6
2014-Jul-24 01:32N 46°01' W 001°35'0 0.0
2014-Jul-23 20:13N 46°01' W 001°35'0 0.1
2014-Jul-23 19:08N 46°01' W 001°35'0 0.0
2014-Jul-23 18:33N 46°01' W 001°35'1 0.1
2014-Jul-22 20:04N 46°02' W 001°33'0 0.0
2014-Jul-22 19:33N 46°02' W 001°33'0 0.1
2014-Jul-22 18:34N 46°02' W 001°34'0 0.0
2014-Jul-22 17:34N 46°02' W 001°34'0 0.0
2014-Jul-22 16:33N 46°02' W 001°34'0 0.3
2014-Jul-22 15:33N 46°02' W 001°34'1 1.1
2014-Jul-22 14:33N 46°01' W 001°34'2 0.2
2014-Jul-22 03:30N 46°03' W 001°34'1 1.3
2014-Jul-22 02:29N 46°02' W 001°33'16 1.6
2014-Jul-21 16:33N 46°17' W 001°41'9 8.8
2014-Jul-21 15:33N 46°25' W 001°46'  
Track history (hours):
 
Tides and Currents Weather Stations Pressure Air Temp Water Temp Dewpoint Dewpoint Depression Visibility Wind Speed Wind Dir Waves Ship Positions

F/V Anna Mamm Mari

Last reported at 2014-Jul-30 16:33 UTC. Time now 2014-Jul-30 17:16 UTC.
Position N 46°15' W 001°43'.

Length 17 m.

Type: Fishing. MMSI: 228393000.

Date/timePositionNaut miles runAvg speedWind from/ knotsBaromVisibWave heightAir tempDewpointWater temp
2014-Jul-30 16:33N 46°15' W 001°43'0 0.0
2014-Jul-30 15:34N 46°15' W 001°43'0 0.4
2014-Jul-30 14:33N 46°14' W 001°43'1 1.3
2014-Jul-30 13:33N 46°15' W 001°41'2 1.9
2014-Jul-30 12:24N 46°13' W 001°43'3 1.6
2014-Jul-30 10:25N 46°11' W 001°46'2 1.9
2014-Jul-30 09:33N 46°12' W 001°47'1 0.1
2014-Jul-29 23:24N 46°12' W 001°45'1 0.1
2014-Jul-29 11:31N 46°12' W 001°46'1 1.0
2014-Jul-29 10:16N 46°11' W 001°46'9 8.3
2014-Jul-29 09:11N 46°20' W 001°46'5 8.4
2014-Jul-29 08:33N 46°25' W 001°46'5 4.7
2014-Jul-29 07:33N 46°30' W 001°47'0 0.0
2014-Jul-29 06:33N 46°30' W 001°47'0 0.0
2014-Jul-29 05:34N 46°30' W 001°47'0 0.0
2014-Jul-29 04:34N 46°30' W 001°47'0 0.0
2014-Jul-29 03:34N 46°30' W 001°47'0 0.0
2014-Jul-29 02:34N 46°30' W 001°47'0 0.0
2014-Jul-29 01:34N 46°30' W 001°47'0 0.0
2014-Jul-29 00:33N 46°30' W 001°47'0 0.0
2014-Jul-28 23:34N 46°30' W 001°47'0 0.0
2014-Jul-28 22:34N 46°30' W 001°47'0 0.0
2014-Jul-28 21:34N 46°30' W 001°47'0 0.0
2014-Jul-28 20:33N 46°30' W 001°47'0 0.0
2014-Jul-28 19:34N 46°30' W 001°47'0 0.0
2014-Jul-28 18:33N 46°30' W 001°47'0 0.0
2014-Jul-28 17:34N 46°30' W 001°47'0 0.0
2014-Jul-28 16:34N 46°30' W 001°47'0 0.0
2014-Jul-28 15:33N 46°30' W 001°47'0 0.0
2014-Jul-28 14:34N 46°30' W 001°47'0 0.0
2014-Jul-28 13:34N 46°30' W 001°47'0 0.0
2014-Jul-28 12:33N 46°30' W 001°47'0 0.0
2014-Jul-28 11:34N 46°30' W 001°47'0 0.0
2014-Jul-28 10:34N 46°30' W 001°47'  
2014-Jul-24 14:33N 46°28' W 001°47'9 8.9
2014-Jul-24 13:33N 46°20' W 001°42'9 8.9
2014-Jul-24 12:33N 46°11' W 001°38'9 7.1
2014-Jul-24 11:17N 46°03' W 001°34'0 0.5
2014-Jul-24 10:31N 46°03' W 001°34'0 0.4
2014-Jul-24 09:32N 46°02' W 001°33'1 0.6
2014-Jul-24 08:33N 46°02' W 001°34'0 0.4
2014-Jul-24 07:33N 46°02' W 001°34'0 0.4
2014-Jul-24 06:33N 46°02' W 001°34'1 0.8
2014-Jul-24 05:16N 46°01' W 001°33'1 1.2
2014-Jul-24 04:04N 46°02' W 001°35'0 0.8
2014-Jul-24 03:33N 46°02' W 001°36'1 0.6
2014-Jul-24 01:32N 46°01' W 001°35'0 0.0
2014-Jul-23 20:13N 46°01' W 001°35'0 0.1
2014-Jul-23 19:08N 46°01' W 001°35'0 0.0
2014-Jul-23 18:33N 46°01' W 001°35'1 0.1
2014-Jul-22 20:04N 46°02' W 001°33'0 0.0
2014-Jul-22 19:33N 46°02' W 001°33'0 0.1
2014-Jul-22 18:34N 46°02' W 001°34'0 0.0
2014-Jul-22 17:34N 46°02' W 001°34'0 0.0
2014-Jul-22 16:33N 46°02' W 001°34'0 0.3
2014-Jul-22 15:33N 46°02' W 001°34'1 1.1
2014-Jul-22 14:33N 46°01' W 001°34'2 0.2
2014-Jul-22 03:30N 46°03' W 001°34'1 1.3
2014-Jul-22 02:29N 46°02' W 001°33'16 1.6
2014-Jul-21 16:33N 46°17' W 001°41'9 8.8
2014-Jul-21 15:33N 46°25' W 001°46'  

Dump ship's entire track history